sensor_id;sensor_type;location;lat;lon;timestamp;temperature;humidity
15407;DHT22;7802;51.568;6.364;2022-09-13T00:00:15;16.40;99.90
15407;DHT22;7802;51.568;6.364;2022-09-13T00:03:02;16.30;99.90
15407;DHT22;7802;51.568;6.364;2022-09-13T00:05:50;16.30;99.90
15407;DHT22;7802;51.568;6.364;2022-09-13T00:08:37;16.20;99.90
15407;DHT22;7802;51.568;6.364;2022-09-13T00:11:26;16.20;99.90
15407;DHT22;7802;51.568;6.364;2022-09-13T00:14:13;16.20;99.90
15407;DHT22;7802;51.568;6.364;2022-09-13T00:17:00;16.20;99.90
15407;DHT22;7802;51.568;6.364;2022-09-13T00:19:47;16.20;99.90
15407;DHT22;7802;51.568;6.364;2022-09-13T00:22:34;16.20;99.90
15407;DHT22;7802;51.568;6.364;2022-09-13T00:25:22;16.20;99.90
15407;DHT22;7802;51.568;6.364;2022-09-13T00:28:08;16.20;99.90
15407;DHT22;7802;51.568;6.364;2022-09-13T00:30:58;16.20;99.90
15407;DHT22;7802;51.568;6.364;2022-09-13T00:33:45;16.20;99.90
15407;DHT22;7802;51.568;6.364;2022-09-13T00:36:32;16.20;99.90
15407;DHT22;7802;51.568;6.364;2022-09-13T00:39:19;16.20;99.90
15407;DHT22;7802;51.568;6.364;2022-09-13T00:42:09;16.20;99.90
15407;DHT22;7802;51.568;6.364;2022-09-13T00:44:57;16.20;99.90
15407;DHT22;7802;51.568;6.364;2022-09-13T00:47:47;16.20;99.90
15407;DHT22;7802;51.568;6.364;2022-09-13T00:50:37;16.20;99.90
15407;DHT22;7802;51.568;6.364;2022-09-13T00:53:28;16.10;99.90
15407;DHT22;7802;51.568;6.364;2022-09-13T00:56:19;16.10;99.90
15407;DHT22;7802;51.568;6.364;2022-09-13T00:59:12;16.20;99.90
15407;DHT22;7802;51.568;6.364;2022-09-13T01:02:01;16.20;99.90
15407;DHT22;7802;51.568;6.364;2022-09-13T01:04:49;16.20;99.90
15407;DHT22;7802;51.568;6.364;2022-09-13T01:07:37;16.20;99.90
15407;DHT22;7802;51.568;6.364;2022-09-13T01:10:24;16.10;99.90
15407;DHT22;7802;51.568;6.364;2022-09-13T01:13:16;16.20;99.90
15407;DHT22;7802;51.568;6.364;2022-09-13T01:16:05;16.20;99.90
15407;DHT22;7802;51.568;6.364;2022-09-13T01:18:52;16.20;99.90
15407;DHT22;7802;51.568;6.364;2022-09-13T01:28:29;16.20;99.90
15407;DHT22;7802;51.568;6.364;2022-09-13T01:31:28;16.20;99.90
15407;DHT22;7802;51.568;6.364;2022-09-13T01:34:26;16.20;99.90
15407;DHT22;7802;51.568;6.364;2022-09-13T01:37:28;16.20;99.90
15407;DHT22;7802;51.568;6.364;2022-09-13T01:40:29;16.30;99.90
15407;DHT22;7802;51.568;6.364;2022-09-13T01:43:32;16.30;99.90
15407;DHT22;7802;51.568;6.364;2022-09-13T01:46:25;16.30;99.90
15407;DHT22;7802;51.568;6.364;2022-09-13T01:49:17;16.30;99.90
15407;DHT22;7802;51.568;6.364;2022-09-13T01:52:12;16.30;99.90
15407;DHT22;7802;51.568;6.364;2022-09-13T01:55:07;16.30;99.90
15407;DHT22;7802;51.568;6.364;2022-09-13T01:58:04;16.40;99.90
15407;DHT22;7802;51.568;6.364;2022-09-13T02:00:58;16.40;99.90
15407;DHT22;7802;51.568;6.364;2022-09-13T02:03:51;16.40;99.90
15407;DHT22;7802;51.568;6.364;2022-09-13T02:06:44;16.40;99.90
15407;DHT22;7802;51.568;6.364;2022-09-13T02:09:34;16.50;99.90
15407;DHT22;7802;51.568;6.364;2022-09-13T02:12:24;16.50;99.90
15407;DHT22;7802;51.568;6.364;2022-09-13T02:15:15;16.50;99.90
15407;DHT22;7802;51.568;6.364;2022-09-13T02:18:06;16.50;99.90
15407;DHT22;7802;51.568;6.364;2022-09-13T02:20:58;16.60;99.90
15407;DHT22;7802;51.568;6.364;2022-09-13T02:23:49;16.60;99.90
15407;DHT22;7802;51.568;6.364;2022-09-13T02:26:38;16.60;99.90
15407;DHT22;7802;51.568;6.364;2022-09-13T02:29:26;16.60;99.90
15407;DHT22;7802;51.568;6.364;2022-09-13T02:32:19;16.60;99.90
15407;DHT22;7802;51.568;6.364;2022-09-13T02:35:10;16.50;99.90
15407;DHT22;7802;51.568;6.364;2022-09-13T02:38:04;16.60;99.90
15407;DHT22;7802;51.568;6.364;2022-09-13T02:40:56;16.60;99.90
15407;DHT22;7802;51.568;6.364;2022-09-13T02:43:47;16.50;99.90
15407;DHT22;7802;51.568;6.364;2022-09-13T02:47:09;16.60;99.90
15407;DHT22;7802;51.568;6.364;2022-09-13T02:50:06;16.60;99.90
15407;DHT22;7802;51.568;6.364;2022-09-13T02:53:02;16.60;99.90
15407;DHT22;7802;51.568;6.364;2022-09-13T02:55:54;16.60;99.90
15407;DHT22;7802;51.568;6.364;2022-09-13T02:58:45;16.60;99.90
15407;DHT22;7802;51.568;6.364;2022-09-13T03:01:34;16.70;99.90
15407;DHT22;7802;51.568;6.364;2022-09-13T03:04:22;16.60;99.90
15407;DHT22;7802;51.568;6.364;2022-09-13T03:07:10;16.60;99.90
15407;DHT22;7802;51.568;6.364;2022-09-13T03:10:01;16.60;99.90
15407;DHT22;7802;51.568;6.364;2022-09-13T03:13:04;16.60;99.90
15407;DHT22;7802;51.568;6.364;2022-09-13T03:16:05;16.60;99.90
15407;DHT22;7802;51.568;6.364;2022-09-13T03:19:07;16.60;99.90
15407;DHT22;7802;51.568;6.364;2022-09-13T03:22:19;16.70;99.90
15407;DHT22;7802;51.568;6.364;2022-09-13T03:25:11;16.70;99.90
15407;DHT22;7802;51.568;6.364;2022-09-13T03:28:07;16.70;99.90
15407;DHT22;7802;51.568;6.364;2022-09-13T03:31:03;16.70;99.90
15407;DHT22;7802;51.568;6.364;2022-09-13T03:33:56;16.70;99.90
15407;DHT22;7802;51.568;6.364;2022-09-13T03:36:48;16.70;99.90
15407;DHT22;7802;51.568;6.364;2022-09-13T03:39:41;16.80;99.90
15407;DHT22;7802;51.568;6.364;2022-09-13T03:42:34;16.80;99.90
15407;DHT22;7802;51.568;6.364;2022-09-13T03:45:26;16.90;99.90
15407;DHT22;7802;51.568;6.364;2022-09-13T03:48:14;16.80;99.90
15407;DHT22;7802;51.568;6.364;2022-09-13T03:51:02;16.90;99.90
15407;DHT22;7802;51.568;6.364;2022-09-13T03:53:53;16.90;99.90
15407;DHT22;7802;51.568;6.364;2022-09-13T03:56:41;16.80;99.90
15407;DHT22;7802;51.568;6.364;2022-09-13T03:59:29;16.80;99.90
15407;DHT22;7802;51.568;6.364;2022-09-13T04:02:16;16.80;99.90
15407;DHT22;7802;51.568;6.364;2022-09-13T04:05:04;16.70;99.90
15407;DHT22;7802;51.568;6.364;2022-09-13T04:07:51;16.70;99.90
15407;DHT22;7802;51.568;6.364;2022-09-13T04:10:38;16.70;99.90
15407;DHT22;7802;51.568;6.364;2022-09-13T04:13:26;16.70;99.90
15407;DHT22;7802;51.568;6.364;2022-09-13T04:16:13;16.70;99.90
15407;DHT22;7802;51.568;6.364;2022-09-13T04:19:00;16.70;99.90
15407;DHT22;7802;51.568;6.364;2022-09-13T04:21:47;16.60;99.90
15407;DHT22;7802;51.568;6.364;2022-09-13T04:24:35;16.60;99.90
15407;DHT22;7802;51.568;6.364;2022-09-13T04:27:22;16.60;99.90
15407;DHT22;7802;51.568;6.364;2022-09-13T04:30:11;16.60;99.90
15407;DHT22;7802;51.568;6.364;2022-09-13T04:32:59;16.60;99.90
15407;DHT22;7802;51.568;6.364;2022-09-13T04:35:45;16.60;99.90
15407;DHT22;7802;51.568;6.364;2022-09-13T04:38:32;16.60;99.90
15407;DHT22;7802;51.568;6.364;2022-09-13T04:41:19;16.60;99.90
15407;DHT22;7802;51.568;6.364;2022-09-13T04:44:06;16.60;99.90
15407;DHT22;7802;51.568;6.364;2022-09-13T04:46:53;16.60;99.90
15407;DHT22;7802;51.568;6.364;2022-09-13T04:49:41;16.60;99.90
15407;DHT22;7802;51.568;6.364;2022-09-13T04:52:28;16.60;99.90
15407;DHT22;7802;51.568;6.364;2022-09-13T04:55:15;16.60;99.90
15407;DHT22;7802;51.568;6.364;2022-09-13T04:58:02;16.50;99.90
15407;DHT22;7802;51.568;6.364;2022-09-13T05:00:50;16.50;99.90
15407;DHT22;7802;51.568;6.364;2022-09-13T05:03:42;16.50;99.90
15407;DHT22;7802;51.568;6.364;2022-09-13T05:06:29;16.50;99.90
15407;DHT22;7802;51.568;6.364;2022-09-13T05:09:16;16.50;99.90
15407;DHT22;7802;51.568;6.364;2022-09-13T05:12:03;16.50;99.90
15407;DHT22;7802;51.568;6.364;2022-09-13T05:14:50;16.50;99.90
15407;DHT22;7802;51.568;6.364;2022-09-13T05:17:37;16.50;99.90
15407;DHT22;7802;51.568;6.364;2022-09-13T05:20:24;16.50;99.90
15407;DHT22;7802;51.568;6.364;2022-09-13T05:23:12;16.50;99.90
15407;DHT22;7802;51.568;6.364;2022-09-13T05:26:00;16.50;99.90
15407;DHT22;7802;51.568;6.364;2022-09-13T05:28:47;16.60;99.90
15407;DHT22;7802;51.568;6.364;2022-09-13T05:31:35;16.60;99.90
15407;DHT22;7802;51.568;6.364;2022-09-13T05:34:22;16.60;99.90
15407;DHT22;7802;51.568;6.364;2022-09-13T05:37:09;16.60;99.90
15407;DHT22;7802;51.568;6.364;2022-09-13T05:39:57;16.70;99.90
15407;DHT22;7802;51.568;6.364;2022-09-13T05:42:58;16.80;99.90
15407;DHT22;7802;51.568;6.364;2022-09-13T05:45:45;16.80;99.90
15407;DHT22;7802;51.568;6.364;2022-09-13T05:48:33;16.80;99.90
15407;DHT22;7802;51.568;6.364;2022-09-13T05:51:21;16.80;99.90
15407;DHT22;7802;51.568;6.364;2022-09-13T05:54:10;16.80;99.90
15407;DHT22;7802;51.568;6.364;2022-09-13T05:56:58;16.80;99.90
15407;DHT22;7802;51.568;6.364;2022-09-13T05:59:44;16.80;99.90
15407;DHT22;7802;51.568;6.364;2022-09-13T06:02:33;16.90;99.90
15407;DHT22;7802;51.568;6.364;2022-09-13T06:05:20;16.90;99.90
15407;DHT22;7802;51.568;6.364;2022-09-13T06:08:07;16.90;99.90
15407;DHT22;7802;51.568;6.364;2022-09-13T06:10:55;16.90;99.90
15407;DHT22;7802;51.568;6.364;2022-09-13T06:13:43;16.90;99.90
15407;DHT22;7802;51.568;6.364;2022-09-13T06:16:29;17.00;99.90
15407;DHT22;7802;51.568;6.364;2022-09-13T06:19:16;17.00;99.90
15407;DHT22;7802;51.568;6.364;2022-09-13T06:22:03;17.10;99.90
15407;DHT22;7802;51.568;6.364;2022-09-13T06:24:50;17.20;99.90
15407;DHT22;7802;51.568;6.364;2022-09-13T06:27:37;17.30;99.90
15407;DHT22;7802;51.568;6.364;2022-09-13T06:30:25;17.40;99.90
15407;DHT22;7802;51.568;6.364;2022-09-13T06:33:12;17.50;99.90
15407;DHT22;7802;51.568;6.364;2022-09-13T06:36:03;17.60;99.90
15407;DHT22;7802;51.568;6.364;2022-09-13T06:38:50;17.60;99.90
15407;DHT22;7802;51.568;6.364;2022-09-13T06:41:37;17.70;99.90
15407;DHT22;7802;51.568;6.364;2022-09-13T06:44:24;17.90;99.90
15407;DHT22;7802;51.568;6.364;2022-09-13T06:47:12;17.90;99.90
15407;DHT22;7802;51.568;6.364;2022-09-13T06:49:59;18.00;99.90
15407;DHT22;7802;51.568;6.364;2022-09-13T06:52:46;18.10;99.90
15407;DHT22;7802;51.568;6.364;2022-09-13T06:55:33;18.20;99.90
15407;DHT22;7802;51.568;6.364;2022-09-13T06:58:19;18.20;99.90
15407;DHT22;7802;51.568;6.364;2022-09-13T07:01:11;18.30;99.90
15407;DHT22;7802;51.568;6.364;2022-09-13T07:04:02;18.30;99.90
15407;DHT22;7802;51.568;6.364;2022-09-13T07:06:49;18.40;99.90
15407;DHT22;7802;51.568;6.364;2022-09-13T07:09:36;18.50;99.90
15407;DHT22;7802;51.568;6.364;2022-09-13T07:12:23;18.50;99.90
15407;DHT22;7802;51.568;6.364;2022-09-13T07:15:10;18.50;99.90
15407;DHT22;7802;51.568;6.364;2022-09-13T07:17:56;18.50;99.90
15407;DHT22;7802;51.568;6.364;2022-09-13T07:20:44;18.60;99.90
15407;DHT22;7802;51.568;6.364;2022-09-13T07:23:32;18.70;99.90
15407;DHT22;7802;51.568;6.364;2022-09-13T07:26:19;18.70;99.90
15407;DHT22;7802;51.568;6.364;2022-09-13T07:29:09;18.80;99.90
15407;DHT22;7802;51.568;6.364;2022-09-13T07:31:56;18.80;99.90
15407;DHT22;7802;51.568;6.364;2022-09-13T07:34:43;18.80;99.90
15407;DHT22;7802;51.568;6.364;2022-09-13T07:37:31;18.90;99.90
15407;DHT22;7802;51.568;6.364;2022-09-13T07:40:18;19.00;99.90
15407;DHT22;7802;51.568;6.364;2022-09-13T07:43:05;19.10;99.90
15407;DHT22;7802;51.568;6.364;2022-09-13T07:45:59;19.20;99.90
15407;DHT22;7802;51.568;6.364;2022-09-13T07:48:48;19.40;99.90
15407;DHT22;7802;51.568;6.364;2022-09-13T07:51:36;19.50;99.90
15407;DHT22;7802;51.568;6.364;2022-09-13T07:54:25;19.60;99.90
15407;DHT22;7802;51.568;6.364;2022-09-13T07:57:12;19.80;99.90
15407;DHT22;7802;51.568;6.364;2022-09-13T07:59:59;19.90;99.90
15407;DHT22;7802;51.568;6.364;2022-09-13T08:02:47;20.00;99.90
15407;DHT22;7802;51.568;6.364;2022-09-13T08:05:37;20.10;99.90
15407;DHT22;7802;51.568;6.364;2022-09-13T08:08:24;20.20;99.90
15407;DHT22;7802;51.568;6.364;2022-09-13T08:11:15;20.50;99.90
15407;DHT22;7802;51.568;6.364;2022-09-13T08:14:03;20.60;99.90
15407;DHT22;7802;51.568;6.364;2022-09-13T08:16:53;20.70;99.90
15407;DHT22;7802;51.568;6.364;2022-09-13T08:19:41;20.80;99.90
15407;DHT22;7802;51.568;6.364;2022-09-13T08:22:28;21.10;99.90
15407;DHT22;7802;51.568;6.364;2022-09-13T08:25:15;21.30;99.90
15407;DHT22;7802;51.568;6.364;2022-09-13T08:28:04;21.40;99.90
15407;DHT22;7802;51.568;6.364;2022-09-13T08:30:52;21.60;99.90
15407;DHT22;7802;51.568;6.364;2022-09-13T08:33:38;21.70;99.90
15407;DHT22;7802;51.568;6.364;2022-09-13T08:36:32;21.70;99.90
15407;DHT22;7802;51.568;6.364;2022-09-13T08:39:19;21.80;99.90
15407;DHT22;7802;51.568;6.364;2022-09-13T08:42:15;21.90;99.90
15407;DHT22;7802;51.568;6.364;2022-09-13T08:45:07;22.00;99.90
15407;DHT22;7802;51.568;6.364;2022-09-13T08:47:57;22.10;99.90
15407;DHT22;7802;51.568;6.364;2022-09-13T08:50:44;22.20;99.90
15407;DHT22;7802;51.568;6.364;2022-09-13T08:53:40;22.30;99.90
15407;DHT22;7802;51.568;6.364;2022-09-13T08:56:37;22.40;99.90
15407;DHT22;7802;51.568;6.364;2022-09-13T08:59:39;22.50;99.90
15407;DHT22;7802;51.568;6.364;2022-09-13T09:02:45;22.60;99.90
15407;DHT22;7802;51.568;6.364;2022-09-13T09:05:42;22.70;99.90
15407;DHT22;7802;51.568;6.364;2022-09-13T09:08:39;22.70;99.90
15407;DHT22;7802;51.568;6.364;2022-09-13T09:11:33;22.80;99.90
15407;DHT22;7802;51.568;6.364;2022-09-13T09:14:26;22.80;99.90
15407;DHT22;7802;51.568;6.364;2022-09-13T09:17:21;22.90;99.90
15407;DHT22;7802;51.568;6.364;2022-09-13T09:20:18;23.00;99.90
15407;DHT22;7802;51.568;6.364;2022-09-13T09:23:12;23.10;99.90
15407;DHT22;7802;51.568;6.364;2022-09-13T09:26:15;23.00;99.90
15407;DHT22;7802;51.568;6.364;2022-09-13T09:29:09;23.00;99.90
15407;DHT22;7802;51.568;6.364;2022-09-13T09:32:15;23.00;99.90
15407;DHT22;7802;51.568;6.364;2022-09-13T09:35:13;23.10;99.90
15407;DHT22;7802;51.568;6.364;2022-09-13T09:38:18;23.20;99.90
15407;DHT22;7802;51.568;6.364;2022-09-13T09:41:13;23.40;99.90
15407;DHT22;7802;51.568;6.364;2022-09-13T09:44:06;23.50;99.90
15407;DHT22;7802;51.568;6.364;2022-09-13T09:46:56;23.50;99.90
15407;DHT22;7802;51.568;6.364;2022-09-13T09:49:47;23.70;99.90
15407;DHT22;7802;51.568;6.364;2022-09-13T09:53:00;23.80;99.90
15407;DHT22;7802;51.568;6.364;2022-09-13T09:55:53;23.70;99.90
15407;DHT22;7802;51.568;6.364;2022-09-13T09:58:42;23.80;99.90
15407;DHT22;7802;51.568;6.364;2022-09-13T10:01:31;23.70;99.90
15407;DHT22;7802;51.568;6.364;2022-09-13T10:04:21;23.90;99.90
15407;DHT22;7802;51.568;6.364;2022-09-13T10:07:23;23.90;99.90
15407;DHT22;7802;51.568;6.364;2022-09-13T10:10:21;24.20;99.90
15407;DHT22;7802;51.568;6.364;2022-09-13T10:13:14;24.40;99.90
15407;DHT22;7802;51.568;6.364;2022-09-13T10:16:04;24.20;99.90
15407;DHT22;7802;51.568;6.364;2022-09-13T10:18:51;24.20;99.90
15407;DHT22;7802;51.568;6.364;2022-09-13T10:21:38;24.40;99.90
15407;DHT22;7802;51.568;6.364;2022-09-13T10:24:26;24.50;99.90
15407;DHT22;7802;51.568;6.364;2022-09-13T10:27:24;24.60;99.90
15407;DHT22;7802;51.568;6.364;2022-09-13T10:30:29;24.50;99.90
15407;DHT22;7802;51.568;6.364;2022-09-13T10:33:24;24.60;99.90
15407;DHT22;7802;51.568;6.364;2022-09-13T10:36:15;24.60;99.90
15407;DHT22;7802;51.568;6.364;2022-09-13T10:39:25;24.50;99.90
15407;DHT22;7802;51.568;6.364;2022-09-13T10:42:21;24.60;99.90
15407;DHT22;7802;51.568;6.364;2022-09-13T10:45:21;24.50;99.90
15407;DHT22;7802;51.568;6.364;2022-09-13T10:48:11;24.50;99.90
15407;DHT22;7802;51.568;6.364;2022-09-13T10:51:01;24.50;99.90
15407;DHT22;7802;51.568;6.364;2022-09-13T10:53:48;24.60;99.90
15407;DHT22;7802;51.568;6.364;2022-09-13T10:56:34;24.90;99.90
15407;DHT22;7802;51.568;6.364;2022-09-13T10:59:24;25.00;99.90
15407;DHT22;7802;51.568;6.364;2022-09-13T11:02:45;25.10;99.90
15407;DHT22;7802;51.568;6.364;2022-09-13T11:05:40;25.20;99.90
15407;DHT22;7802;51.568;6.364;2022-09-13T11:08:36;25.00;99.90
15407;DHT22;7802;51.568;6.364;2022-09-13T11:11:32;25.20;99.90
15407;DHT22;7802;51.568;6.364;2022-09-13T11:14:40;25.40;99.90
15407;DHT22;7802;51.568;6.364;2022-09-13T11:17:43;25.80;99.90
15407;DHT22;7802;51.568;6.364;2022-09-13T11:20:43;25.80;99.90
15407;DHT22;7802;51.568;6.364;2022-09-13T11:23:44;25.80;99.90
15407;DHT22;7802;51.568;6.364;2022-09-13T11:26:48;25.90;99.90
15407;DHT22;7802;51.568;6.364;2022-09-13T11:29:55;26.00;99.90
15407;DHT22;7802;51.568;6.364;2022-09-13T11:33:12;25.90;99.90
15407;DHT22;7802;51.568;6.364;2022-09-13T11:39:27;25.50;99.90
15407;DHT22;7802;51.568;6.364;2022-09-13T11:42:29;25.50;99.90
15407;DHT22;7802;51.568;6.364;2022-09-13T11:45:21;25.40;99.90
15407;DHT22;7802;51.568;6.364;2022-09-13T11:48:28;25.20;99.90
15407;DHT22;7802;51.568;6.364;2022-09-13T11:51:27;25.10;99.90
15407;DHT22;7802;51.568;6.364;2022-09-13T11:54:26;25.10;99.90
15407;DHT22;7802;51.568;6.364;2022-09-13T11:57:20;25.20;99.90
15407;DHT22;7802;51.568;6.364;2022-09-13T12:00:18;25.20;99.90
15407;DHT22;7802;51.568;6.364;2022-09-13T12:03:13;25.40;99.90
15407;DHT22;7802;51.568;6.364;2022-09-13T12:06:06;25.50;99.90
15407;DHT22;7802;51.568;6.364;2022-09-13T12:08:59;25.60;99.90
15407;DHT22;7802;51.568;6.364;2022-09-13T12:11:51;25.60;99.90
15407;DHT22;7802;51.568;6.364;2022-09-13T12:14:44;25.80;99.90
15407;DHT22;7802;51.568;6.364;2022-09-13T12:17:37;25.80;99.90
15407;DHT22;7802;51.568;6.364;2022-09-13T12:20:30;25.70;99.90
15407;DHT22;7802;51.568;6.364;2022-09-13T12:23:23;25.50;99.90
15407;DHT22;7802;51.568;6.364;2022-09-13T12:26:18;25.30;99.90
15407;DHT22;7802;51.568;6.364;2022-09-13T12:29:13;25.20;99.90
15407;DHT22;7802;51.568;6.364;2022-09-13T12:32:03;25.00;99.90
15407;DHT22;7802;51.568;6.364;2022-09-13T12:34:56;24.90;99.90
15407;DHT22;7802;51.568;6.364;2022-09-13T12:38:07;24.80;99.90
15407;DHT22;7802;51.568;6.364;2022-09-13T12:41:10;24.60;99.90
15407;DHT22;7802;51.568;6.364;2022-09-13T12:44:15;24.60;99.90
15407;DHT22;7802;51.568;6.364;2022-09-13T12:47:20;24.50;99.90
15407;DHT22;7802;51.568;6.364;2022-09-13T12:50:36;24.30;99.90
15407;DHT22;7802;51.568;6.364;2022-09-13T12:53:58;24.30;99.90
15407;DHT22;7802;51.568;6.364;2022-09-13T12:57:00;24.40;99.90
15407;DHT22;7802;51.568;6.364;2022-09-13T13:00:09;24.30;99.90
15407;DHT22;7802;51.568;6.364;2022-09-13T13:03:04;24.20;99.90
15407;DHT22;7802;51.568;6.364;2022-09-13T13:06:07;24.30;99.90
15407;DHT22;7802;51.568;6.364;2022-09-13T13:08:59;24.50;99.90
15407;DHT22;7802;51.568;6.364;2022-09-13T13:11:48;24.60;99.90
15407;DHT22;7802;51.568;6.364;2022-09-13T13:14:47;24.80;99.90
15407;DHT22;7802;51.568;6.364;2022-09-13T13:17:46;25.00;99.90
15407;DHT22;7802;51.568;6.364;2022-09-13T13:21:05;25.00;99.90
15407;DHT22;7802;51.568;6.364;2022-09-13T13:27:34;24.90;99.90
15407;DHT22;7802;51.568;6.364;2022-09-13T13:30:50;24.60;99.90
15407;DHT22;7802;51.568;6.364;2022-09-13T13:33:47;24.50;99.90
15407;DHT22;7802;51.568;6.364;2022-09-13T13:36:43;24.40;99.90
15407;DHT22;7802;51.568;6.364;2022-09-13T13:39:37;24.30;99.90
15407;DHT22;7802;51.568;6.364;2022-09-13T13:42:25;24.30;99.90
15407;DHT22;7802;51.568;6.364;2022-09-13T13:45:20;24.30;99.90
15407;DHT22;7802;51.568;6.364;2022-09-13T13:48:11;24.30;99.90
15407;DHT22;7802;51.568;6.364;2022-09-13T13:51:18;24.40;99.90
15407;DHT22;7802;51.568;6.364;2022-09-13T13:54:28;24.50;99.90
15407;DHT22;7802;51.568;6.364;2022-09-13T13:57:22;24.40;99.90
15407;DHT22;7802;51.568;6.364;2022-09-13T14:00:13;24.40;99.90
15407;DHT22;7802;51.568;6.364;2022-09-13T14:03:09;24.40;99.90
15407;DHT22;7802;51.568;6.364;2022-09-13T14:06:08;24.50;99.90
15407;DHT22;7802;51.568;6.364;2022-09-13T14:09:03;24.60;99.90
15407;DHT22;7802;51.568;6.364;2022-09-13T14:12:00;24.60;99.90
15407;DHT22;7802;51.568;6.364;2022-09-13T14:15:10;24.60;99.90
15407;DHT22;7802;51.568;6.364;2022-09-13T14:18:25;24.40;99.90
15407;DHT22;7802;51.568;6.364;2022-09-13T14:21:22;24.40;99.90
15407;DHT22;7802;51.568;6.364;2022-09-13T14:24:18;24.30;99.90
15407;DHT22;7802;51.568;6.364;2022-09-13T14:27:05;24.30;99.90
15407;DHT22;7802;51.568;6.364;2022-09-13T14:29:57;24.30;99.90
15407;DHT22;7802;51.568;6.364;2022-09-13T14:32:49;24.40;99.90
15407;DHT22;7802;51.568;6.364;2022-09-13T14:35:38;24.40;99.90
15407;DHT22;7802;51.568;6.364;2022-09-13T14:38:28;24.40;99.90
15407;DHT22;7802;51.568;6.364;2022-09-13T14:41:20;24.30;99.90
15407;DHT22;7802;51.568;6.364;2022-09-13T14:44:15;24.30;99.90
15407;DHT22;7802;51.568;6.364;2022-09-13T14:47:17;24.40;99.90
15407;DHT22;7802;51.568;6.364;2022-09-13T14:50:09;24.40;99.90
15407;DHT22;7802;51.568;6.364;2022-09-13T14:53:01;24.40;99.90
15407;DHT22;7802;51.568;6.364;2022-09-13T14:55:51;24.40;99.90
15407;DHT22;7802;51.568;6.364;2022-09-13T14:58:43;24.40;99.90
15407;DHT22;7802;51.568;6.364;2022-09-13T15:01:33;24.50;99.90
15407;DHT22;7802;51.568;6.364;2022-09-13T15:04:20;24.40;99.90
15407;DHT22;7802;51.568;6.364;2022-09-13T15:07:19;24.40;99.90
15407;DHT22;7802;51.568;6.364;2022-09-13T15:10:19;24.30;99.90
15407;DHT22;7802;51.568;6.364;2022-09-13T15:13:09;24.20;99.90
15407;DHT22;7802;51.568;6.364;2022-09-13T15:15:56;24.20;99.90
15407;DHT22;7802;51.568;6.364;2022-09-13T15:18:43;24.10;99.90
15407;DHT22;7802;51.568;6.364;2022-09-13T15:21:30;24.00;99.90
15407;DHT22;7802;51.568;6.364;2022-09-13T15:24:24;23.80;99.90
15407;DHT22;7802;51.568;6.364;2022-09-13T15:27:19;23.70;99.90
15407;DHT22;7802;51.568;6.364;2022-09-13T15:30:20;23.60;99.90
15407;DHT22;7802;51.568;6.364;2022-09-13T15:33:28;23.60;99.90
15407;DHT22;7802;51.568;6.364;2022-09-13T15:36:26;23.60;99.90
15407;DHT22;7802;51.568;6.364;2022-09-13T15:39:15;23.40;99.90
15407;DHT22;7802;51.568;6.364;2022-09-13T15:42:03;23.40;99.90
15407;DHT22;7802;51.568;6.364;2022-09-13T15:44:50;23.40;99.90
15407;DHT22;7802;51.568;6.364;2022-09-13T15:47:37;23.30;99.90
15407;DHT22;7802;51.568;6.364;2022-09-13T15:50:25;23.20;99.90
15407;DHT22;7802;51.568;6.364;2022-09-13T15:53:14;23.10;99.90
15407;DHT22;7802;51.568;6.364;2022-09-13T15:56:02;23.10;99.90
15407;DHT22;7802;51.568;6.364;2022-09-13T15:58:49;23.00;99.90
15407;DHT22;7802;51.568;6.364;2022-09-13T16:01:36;22.90;99.90
15407;DHT22;7802;51.568;6.364;2022-09-13T16:04:23;22.90;99.90
15407;DHT22;7802;51.568;6.364;2022-09-13T16:07:10;22.90;99.90
15407;DHT22;7802;51.568;6.364;2022-09-13T16:09:57;22.90;99.90
15407;DHT22;7802;51.568;6.364;2022-09-13T16:12:45;22.90;99.90
15407;DHT22;7802;51.568;6.364;2022-09-13T16:15:32;22.80;99.90
15407;DHT22;7802;51.568;6.364;2022-09-13T16:18:21;22.80;99.90
15407;DHT22;7802;51.568;6.364;2022-09-13T16:21:09;22.70;99.90
15407;DHT22;7802;51.568;6.364;2022-09-13T16:23:56;22.70;99.90
15407;DHT22;7802;51.568;6.364;2022-09-13T16:26:43;22.70;99.90
15407;DHT22;7802;51.568;6.364;2022-09-13T16:29:30;22.70;99.90
15407;DHT22;7802;51.568;6.364;2022-09-13T16:32:17;22.60;99.90
15407;DHT22;7802;51.568;6.364;2022-09-13T16:35:06;22.60;99.90
15407;DHT22;7802;51.568;6.364;2022-09-13T16:37:53;22.60;99.90
15407;DHT22;7802;51.568;6.364;2022-09-13T16:40:41;22.60;99.90
15407;DHT22;7802;51.568;6.364;2022-09-13T16:43:28;22.50;99.90
15407;DHT22;7802;51.568;6.364;2022-09-13T16:46:15;22.40;99.90
15407;DHT22;7802;51.568;6.364;2022-09-13T16:49:03;22.40;99.90
15407;DHT22;7802;51.568;6.364;2022-09-13T16:51:50;22.30;99.90
15407;DHT22;7802;51.568;6.364;2022-09-13T16:54:38;22.30;99.90
15407;DHT22;7802;51.568;6.364;2022-09-13T16:57:25;22.20;99.90
15407;DHT22;7802;51.568;6.364;2022-09-13T17:00:13;22.10;99.90
15407;DHT22;7802;51.568;6.364;2022-09-13T17:03:00;22.10;99.90
15407;DHT22;7802;51.568;6.364;2022-09-13T17:05:57;22.10;99.90
15407;DHT22;7802;51.568;6.364;2022-09-13T17:08:49;22.10;99.90
15407;DHT22;7802;51.568;6.364;2022-09-13T17:11:38;22.00;99.90
15407;DHT22;7802;51.568;6.364;2022-09-13T17:14:25;22.00;99.90
15407;DHT22;7802;51.568;6.364;2022-09-13T17:17:13;21.90;99.90
15407;DHT22;7802;51.568;6.364;2022-09-13T17:20:02;21.80;99.90
15407;DHT22;7802;51.568;6.364;2022-09-13T17:22:50;21.70;99.90
15407;DHT22;7802;51.568;6.364;2022-09-13T17:25:40;21.70;99.90
15407;DHT22;7802;51.568;6.364;2022-09-13T17:28:31;21.60;99.90
15407;DHT22;7802;51.568;6.364;2022-09-13T17:31:20;21.60;99.90
15407;DHT22;7802;51.568;6.364;2022-09-13T17:34:07;21.50;99.90
15407;DHT22;7802;51.568;6.364;2022-09-13T17:36:55;21.50;99.90
15407;DHT22;7802;51.568;6.364;2022-09-13T17:39:42;21.40;99.90
15407;DHT22;7802;51.568;6.364;2022-09-13T17:42:30;21.30;99.90
15407;DHT22;7802;51.568;6.364;2022-09-13T17:45:17;21.30;99.90
15407;DHT22;7802;51.568;6.364;2022-09-13T17:48:04;21.20;99.90
15407;DHT22;7802;51.568;6.364;2022-09-13T17:50:51;21.20;99.90
15407;DHT22;7802;51.568;6.364;2022-09-13T17:53:39;21.20;99.90
15407;DHT22;7802;51.568;6.364;2022-09-13T17:56:28;21.20;99.90
15407;DHT22;7802;51.568;6.364;2022-09-13T17:59:19;21.10;99.90
15407;DHT22;7802;51.568;6.364;2022-09-13T18:02:06;21.10;99.90
15407;DHT22;7802;51.568;6.364;2022-09-13T18:04:53;21.10;99.90
15407;DHT22;7802;51.568;6.364;2022-09-13T18:07:40;21.00;99.90
15407;DHT22;7802;51.568;6.364;2022-09-13T18:10:27;21.10;99.90
15407;DHT22;7802;51.568;6.364;2022-09-13T18:13:35;21.00;99.90
15407;DHT22;7802;51.568;6.364;2022-09-13T18:16:24;21.00;99.90
15407;DHT22;7802;51.568;6.364;2022-09-13T18:19:11;21.00;99.90
15407;DHT22;7802;51.568;6.364;2022-09-13T18:21:58;20.90;99.90
15407;DHT22;7802;51.568;6.364;2022-09-13T18:24:46;20.90;99.90
15407;DHT22;7802;51.568;6.364;2022-09-13T18:27:33;20.90;99.90
15407;DHT22;7802;51.568;6.364;2022-09-13T18:30:20;20.80;99.90
15407;DHT22;7802;51.568;6.364;2022-09-13T18:33:08;20.70;99.90
15407;DHT22;7802;51.568;6.364;2022-09-13T21:42:25;18.60;99.90